sensor_id;sensor_type;location;lat;lon;timestamp;pressure;altitude;pressure_sealevel;temperature;humidity
62038;BME280;47991;42.974;12.082;2023-05-02T06:29:19;96980.38;;;15.49;79.17
62038;BME280;47991;42.974;12.082;2023-05-02T06:31:54;96975.44;;;15.68;78.87
62038;BME280;47991;42.974;12.082;2023-05-02T06:34:22;96972.70;;;15.84;78.33
62038;BME280;47991;42.974;12.082;2023-05-02T06:37:06;96974.30;;;15.96;77.13
62038;BME280;47991;42.974;12.082;2023-05-02T06:39:35;96973.73;;;16.02;76.51
62038;BME280;47991;42.974;12.082;2023-05-02T06:42:18;96977.20;;;16.03;77.41
62038;BME280;47991;42.974;12.082;2023-05-02T06:44:50;96977.32;;;16.13;77.71
62038;BME280;47991;42.974;12.082;2023-05-02T06:47:20;96979.53;;;16.29;77.09
62038;BME280;47991;42.974;12.082;2023-05-02T06:49:50;96983.98;;;16.32;75.47
62038;BME280;47991;42.974;12.082;2023-05-02T06:52:28;96986.92;;;16.25;74.91
62038;BME280;47991;42.974;12.082;2023-05-02T06:54:58;96986.61;;;15.96;76.67
62038;BME280;47991;42.974;12.082;2023-05-02T06:57:27;96988.31;;;15.79;77.01
62038;BME280;47991;42.974;12.082;2023-05-02T07:00:04;96993.15;;;15.52;77.59
62038;BME280;47991;42.974;12.082;2023-05-02T07:02:31;96991.85;;;15.41;79.49
62038;BME280;47991;42.974;12.082;2023-05-02T07:05:01;96992.20;;;15.62;78.65
62038;BME280;47991;42.974;12.082;2023-05-02T07:07:31;96991.48;;;15.78;77.06
62038;BME280;47991;42.974;12.082;2023-05-02T07:10:02;96995.05;;;15.80;76.56
62038;BME280;47991;42.974;12.082;2023-05-02T07:12:31;96992.00;;;15.78;75.27
62038;BME280;47991;42.974;12.082;2023-05-02T07:14:58;96990.89;;;15.82;76.43
62038;BME280;47991;42.974;12.082;2023-05-02T07:17:25;96992.55;;;15.80;75.64
62038;BME280;47991;42.974;12.082;2023-05-02T07:19:59;96994.52;;;15.92;76.54
62038;BME280;47991;42.974;12.082;2023-05-02T07:22:26;96997.36;;;16.06;76.11
62038;BME280;47991;42.974;12.082;2023-05-02T07:25:02;96994.65;;;16.09;74.16
62038;BME280;47991;42.974;12.082;2023-05-02T07:27:33;96994.70;;;16.09;74.36
62038;BME280;47991;42.974;12.082;2023-05-02T07:30:10;97000.77;;;16.11;74.48
62038;BME280;47991;42.974;12.082;2023-05-02T07:32:37;97003.74;;;16.21;74.76
62038;BME280;47991;42.974;12.082;2023-05-02T07:35:08;97003.89;;;16.33;74.36
62038;BME280;47991;42.974;12.082;2023-05-02T07:37:56;96998.55;;;16.41;74.55
62038;BME280;47991;42.974;12.082;2023-05-02T07:40:23;97000.23;;;16.42;73.86
62038;BME280;47991;42.974;12.082;2023-05-02T07:42:49;97001.58;;;16.35;73.78
62038;BME280;47991;42.974;12.082;2023-05-02T07:45:16;97000.77;;;16.12;74.31
62038;BME280;47991;42.974;12.082;2023-05-02T07:47:43;97002.23;;;16.05;74.77
62038;BME280;47991;42.974;12.082;2023-05-02T07:50:13;97004.94;;;15.85;73.94
62038;BME280;47991;42.974;12.082;2023-05-02T07:52:49;97011.63;;;15.68;75.92
62038;BME280;47991;42.974;12.082;2023-05-02T07:55:27;97017.99;;;15.63;75.59
62038;BME280;47991;42.974;12.082;2023-05-02T07:57:58;97021.79;;;15.71;75.71
62038;BME280;47991;42.974;12.082;2023-05-02T08:00:25;97023.48;;;15.79;75.90
62038;BME280;47991;42.974;12.082;2023-05-02T08:02:51;97025.05;;;15.76;76.28
62038;BME280;47991;42.974;12.082;2023-05-02T08:05:18;97025.91;;;15.73;75.83
62038;BME280;47991;42.974;12.082;2023-05-02T08:07:47;97031.64;;;15.67;76.38
62038;BME280;47991;42.974;12.082;2023-05-02T08:10:13;97041.52;;;15.63;76.57
62038;BME280;47991;42.974;12.082;2023-05-02T08:12:41;97048.30;;;15.48;77.02
62038;BME280;47991;42.974;12.082;2023-05-02T08:15:10;97053.24;;;15.45;77.09
62038;BME280;47991;42.974;12.082;2023-05-02T08:17:37;97053.19;;;15.52;77.10
62038;BME280;47991;42.974;12.082;2023-05-02T08:20:06;97053.48;;;15.65;77.42
62038;BME280;47991;42.974;12.082;2023-05-02T08:22:33;97050.31;;;15.80;76.19
62038;BME280;47991;42.974;12.082;2023-05-02T08:24:59;97056.63;;;15.94;75.74
62038;BME280;47991;42.974;12.082;2023-05-02T08:27:27;97054.83;;;15.88;77.00
62038;BME280;47991;42.974;12.082;2023-05-02T08:32:37;97059.19;;;16.07;76.43
62038;BME280;47991;42.974;12.082;2023-05-02T08:35:07;97059.05;;;16.29;74.93
62038;BME280;47991;42.974;12.082;2023-05-02T08:37:39;97058.27;;;16.61;74.10
62038;BME280;47991;42.974;12.082;2023-05-02T08:40:11;97059.11;;;16.90;71.69
62038;BME280;47991;42.974;12.082;2023-05-02T08:42:40;97062.06;;;17.00;71.84
62038;BME280;47991;42.974;12.082;2023-05-02T08:45:08;97065.84;;;17.08;71.22
62038;BME280;47991;42.974;12.082;2023-05-02T08:47:40;97070.34;;;16.99;71.08
62038;BME280;47991;42.974;12.082;2023-05-02T08:50:16;97073.97;;;16.84;72.11
62038;BME280;47991;42.974;12.082;2023-05-02T08:52:51;97078.20;;;16.85;72.57
62038;BME280;47991;42.974;12.082;2023-05-02T08:55:22;97080.47;;;16.71;71.75
62038;BME280;47991;42.974;12.082;2023-05-02T08:58:06;97080.81;;;16.94;71.93
62038;BME280;47991;42.974;12.082;2023-05-02T09:00:38;97081.11;;;17.12;71.03
62038;BME280;47991;42.974;12.082;2023-05-02T09:03:30;97081.08;;;17.21;70.80
62038;BME280;47991;42.974;12.082;2023-05-02T09:06:20;97086.42;;;17.15;69.64
62038;BME280;47991;42.974;12.082;2023-05-02T09:09:01;97087.38;;;17.14;72.03
62038;BME280;47991;42.974;12.082;2023-05-02T09:11:31;97093.33;;;17.38;71.00
62038;BME280;47991;42.974;12.082;2023-05-02T09:13:57;97089.33;;;17.55;69.90
62038;BME280;47991;42.974;12.082;2023-05-02T09:16:37;97090.14;;;17.66;69.11
62038;BME280;47991;42.974;12.082;2023-05-02T09:19:05;97091.42;;;17.53;68.07
62038;BME280;47991;42.974;12.082;2023-05-02T09:21:36;97092.41;;;17.54;69.27
62038;BME280;47991;42.974;12.082;2023-05-02T09:24:19;97093.80;;;17.73;68.86
62038;BME280;47991;42.974;12.082;2023-05-02T09:27:02;97095.19;;;17.69;67.45
62038;BME280;47991;42.974;12.082;2023-05-02T09:29:31;97098.02;;;17.64;67.23
62038;BME280;47991;42.974;12.082;2023-05-02T09:32:01;97097.06;;;17.60;67.13
62038;BME280;47991;42.974;12.082;2023-05-02T09:34:29;97098.44;;;17.50;67.26
62038;BME280;47991;42.974;12.082;2023-05-02T09:37:05;97099.30;;;17.42;67.85
62038;BME280;47991;42.974;12.082;2023-05-02T09:39:34;97101.95;;;17.45;68.64
62038;BME280;47991;42.974;12.082;2023-05-02T09:42:07;97104.55;;;17.57;67.05
62038;BME280;47991;42.974;12.082;2023-05-02T09:45:01;97102.19;;;17.76;66.79
62038;BME280;47991;42.974;12.082;2023-05-02T09:48:02;97100.70;;;18.01;66.47
62038;BME280;47991;42.974;12.082;2023-05-02T09:50:48;97104.99;;;18.14;66.56
62038;BME280;47991;42.974;12.082;2023-05-02T09:53:26;97108.53;;;18.04;65.20
62038;BME280;47991;42.974;12.082;2023-05-02T09:56:07;97111.05;;;18.04;66.49
62038;BME280;47991;42.974;12.082;2023-05-02T09:58:44;97112.11;;;18.12;65.34
62038;BME280;47991;42.974;12.082;2023-05-02T10:01:18;97114.89;;;18.19;65.65
62038;BME280;47991;42.974;12.082;2023-05-02T10:03:48;97112.94;;;18.03;64.73
62038;BME280;47991;42.974;12.082;2023-05-02T10:06:15;97112.44;;;18.12;66.15
62038;BME280;47991;42.974;12.082;2023-05-02T10:08:45;97108.91;;;18.22;65.05
62038;BME280;47991;42.974;12.082;2023-05-02T13:08:17;96834.41;;;22.53;59.39
62038;BME280;47991;42.974;12.082;2023-05-02T13:10:44;96832.61;;;22.41;60.18
62038;BME280;47991;42.974;12.082;2023-05-02T13:13:11;96834.18;;;22.35;60.51
62038;BME280;47991;42.974;12.082;2023-05-02T13:15:52;96837.59;;;22.31;61.01
62038;BME280;47991;42.974;12.082;2023-05-02T13:18:21;96839.08;;;22.29;61.15
62038;BME280;47991;42.974;12.082;2023-05-02T13:20:48;96837.98;;;22.27;61.25
62038;BME280;47991;42.974;12.082;2023-05-02T13:23:15;96837.65;;;22.26;61.39
62038;BME280;47991;42.974;12.082;2023-05-02T13:25:42;96840.27;;;22.25;61.35
62038;BME280;47991;42.974;12.082;2023-05-02T13:28:09;96834.96;;;22.24;61.42
62038;BME280;47991;42.974;12.082;2023-05-02T13:30:50;96841.45;;;22.24;61.42
62038;BME280;47991;42.974;12.082;2023-05-02T13:33:17;96842.19;;;22.24;61.41
62038;BME280;47991;42.974;12.082;2023-05-02T13:35:59;96840.54;;;22.24;61.32
62038;BME280;47991;42.974;12.082;2023-05-02T13:38:29;96841.44;;;22.24;61.37
62038;BME280;47991;42.974;12.082;2023-05-02T13:41:10;96843.89;;;22.25;61.27
62038;BME280;47991;42.974;12.082;2023-05-02T13:43:38;96844.17;;;22.26;61.34
62038;BME280;47991;42.974;12.082;2023-05-02T13:46:06;96843.70;;;22.27;61.45
62038;BME280;47991;42.974;12.082;2023-05-02T13:48:50;96839.87;;;22.28;61.07
62038;BME280;47991;42.974;12.082;2023-05-02T13:51:18;96839.46;;;22.29;61.01
62038;BME280;47991;42.974;12.082;2023-05-02T13:53:47;96839.75;;;22.29;60.94
62038;BME280;47991;42.974;12.082;2023-05-02T13:56:28;96838.08;;;22.30;60.86
62038;BME280;47991;42.974;12.082;2023-05-02T13:58:57;96836.48;;;22.32;61.09
62038;BME280;47991;42.974;12.082;2023-05-02T14:01:24;96841.69;;;22.34;60.96
62038;BME280;47991;42.974;12.082;2023-05-02T14:04:09;96842.15;;;22.35;60.82
62038;BME280;47991;42.974;12.082;2023-05-02T14:06:40;96836.23;;;22.36;60.87
62038;BME280;47991;42.974;12.082;2023-05-02T14:09:08;96837.77;;;22.37;60.89
62038;BME280;47991;42.974;12.082;2023-05-02T14:11:37;96837.27;;;22.39;60.82
62038;BME280;47991;42.974;12.082;2023-05-02T14:14:05;96834.06;;;22.40;60.75
62038;BME280;47991;42.974;12.082;2023-05-02T14:16:33;96835.50;;;22.43;60.87
62038;BME280;47991;42.974;12.082;2023-05-02T14:19:15;96832.95;;;22.45;60.57
62038;BME280;47991;42.974;12.082;2023-05-02T14:21:44;96838.55;;;22.47;60.71
62038;BME280;47991;42.974;12.082;2023-05-02T14:24:12;96837.98;;;22.49;60.68
62038;BME280;47991;42.974;12.082;2023-05-02T14:26:46;96837.65;;;22.51;60.54
62038;BME280;47991;42.974;12.082;2023-05-02T14:29:13;96836.26;;;22.52;60.55
62038;BME280;47991;42.974;12.082;2023-05-02T14:31:55;96836.20;;;22.51;60.68
62038;BME280;47991;42.974;12.082;2023-05-02T14:34:36;96838.22;;;22.52;60.64
62038;BME280;47991;42.974;12.082;2023-05-02T14:37:18;96841.10;;;22.54;60.40
62038;BME280;47991;42.974;12.082;2023-05-02T14:39:47;96841.69;;;22.56;60.41
62038;BME280;47991;42.974;12.082;2023-05-02T14:42:32;96846.44;;;22.57;60.40
62038;BME280;47991;42.974;12.082;2023-05-02T14:45:13;96848.23;;;22.57;59.71
62038;BME280;47991;42.974;12.082;2023-05-02T14:47:40;96846.83;;;22.54;59.28
62038;BME280;47991;42.974;12.082;2023-05-02T14:50:08;96850.97;;;22.53;59.07
62038;BME280;47991;42.974;12.082;2023-05-02T14:52:50;96858.96;;;22.54;59.40
62038;BME280;47991;42.974;12.082;2023-05-02T14:55:18;96864.52;;;22.56;59.30
62038;BME280;47991;42.974;12.082;2023-05-02T14:57:47;96864.98;;;22.57;59.32
62038;BME280;47991;42.974;12.082;2023-05-02T15:00:28;96862.69;;;22.58;59.62
62038;BME280;47991;42.974;12.082;2023-05-02T15:02:55;96863.27;;;22.59;59.38
62038;BME280;47991;42.974;12.082;2023-05-02T15:05:37;96862.45;;;22.61;59.18
62038;BME280;47991;42.974;12.082;2023-05-02T15:08:19;96863.05;;;22.62;59.35
62038;BME280;47991;42.974;12.082;2023-05-02T15:10:47;96862.91;;;22.62;58.85
62038;BME280;47991;42.974;12.082;2023-05-02T15:13:36;96862.34;;;22.56;58.40
62038;BME280;47991;42.974;12.082;2023-05-02T15:16:08;96865.86;;;22.51;58.41
62038;BME280;47991;42.974;12.082;2023-05-02T15:18:37;96867.23;;;22.52;58.58
62038;BME280;47991;42.974;12.082;2023-05-02T15:21:20;96867.89;;;22.55;58.66
62038;BME280;47991;42.974;12.082;2023-05-02T15:24:01;96873.80;;;22.57;58.77
62038;BME280;47991;42.974;12.082;2023-05-02T15:26:29;96871.81;;;22.59;58.68
62038;BME280;47991;42.974;12.082;2023-05-02T15:29:10;96873.71;;;22.60;58.71
62038;BME280;47991;42.974;12.082;2023-05-02T15:31:52;96873.04;;;22.62;58.65
62038;BME280;47991;42.974;12.082;2023-05-02T15:34:20;96870.62;;;22.62;58.77
62038;BME280;47991;42.974;12.082;2023-05-02T15:37:02;96871.83;;;22.63;58.80
62038;BME280;47991;42.974;12.082;2023-05-02T15:39:29;96874.57;;;22.65;58.74
62038;BME280;47991;42.974;12.082;2023-05-02T15:42:09;96877.63;;;22.65;58.76
62038;BME280;47991;42.974;12.082;2023-05-02T15:44:50;96879.21;;;22.65;58.81
62038;BME280;47991;42.974;12.082;2023-05-02T15:47:33;96883.66;;;22.66;58.61
62038;BME280;47991;42.974;12.082;2023-05-02T15:50:14;96887.61;;;22.66;58.95
62038;BME280;47991;42.974;12.082;2023-05-02T15:52:42;96886.68;;;22.66;58.63
62038;BME280;47991;42.974;12.082;2023-05-02T15:55:24;96886.48;;;22.66;58.74
62038;BME280;47991;42.974;12.082;2023-05-02T15:58:05;96889.02;;;22.66;58.84
62038;BME280;47991;42.974;12.082;2023-05-02T16:00:46;96885.96;;;22.66;58.71
62038;BME280;47991;42.974;12.082;2023-05-02T16:03:16;96889.92;;;22.66;58.74
62038;BME280;47991;42.974;12.082;2023-05-02T16:05:44;96891.22;;;22.66;58.72
62038;BME280;47991;42.974;12.082;2023-05-02T16:08:26;96894.23;;;22.66;58.63
62038;BME280;47991;42.974;12.082;2023-05-02T16:11:08;96896.73;;;22.66;58.77
62038;BME280;47991;42.974;12.082;2023-05-02T16:13:49;96899.55;;;22.67;58.66
62038;BME280;47991;42.974;12.082;2023-05-02T16:16:21;96901.86;;;22.68;58.80
62038;BME280;47991;42.974;12.082;2023-05-02T16:19:04;96900.19;;;22.68;58.78
62038;BME280;47991;42.974;12.082;2023-05-02T16:21:42;96903.92;;;22.69;58.69
62038;BME280;47991;42.974;12.082;2023-05-02T16:24:10;96909.06;;;22.69;58.57
62038;BME280;47991;42.974;12.082;2023-05-02T16:26:37;96910.12;;;22.70;58.65
62038;BME280;47991;42.974;12.082;2023-05-02T16:29:05;96906.85;;;22.74;58.76
62038;BME280;47991;42.974;12.082;2023-05-02T16:31:31;96904.83;;;22.84;58.25
62038;BME280;47991;42.974;12.082;2023-05-02T16:43:30;96930.02;;;23.03;57.17
62038;BME280;47991;42.974;12.082;2023-05-02T16:46:11;96930.94;;;23.00;57.29
62038;BME280;47991;42.974;12.082;2023-05-02T16:48:51;96933.52;;;22.99;57.42
62038;BME280;47991;42.974;12.082;2023-05-02T16:51:35;96937.89;;;22.99;57.41
62038;BME280;47991;42.974;12.082;2023-05-02T16:54:25;96940.84;;;22.98;57.58
62038;BME280;47991;42.974;12.082;2023-05-02T16:56:58;96942.23;;;22.99;57.78
62038;BME280;47991;42.974;12.082;2023-05-02T16:59:42;96940.23;;;22.99;58.06
62038;BME280;47991;42.974;12.082;2023-05-02T17:02:08;96938.11;;;23.01;58.32
62038;BME280;47991;42.974;12.082;2023-05-02T17:04:36;96941.22;;;23.02;58.58
62038;BME280;47991;42.974;12.082;2023-05-02T17:07:07;96936.75;;;23.04;59.01
62038;BME280;47991;42.974;12.082;2023-05-02T17:09:48;96938.11;;;23.05;59.59
62038;BME280;47991;42.974;12.082;2023-05-02T17:12:17;96943.39;;;23.06;59.79
62038;BME280;47991;42.974;12.082;2023-05-02T17:15:04;96945.02;;;23.08;60.38
62038;BME280;47991;42.974;12.082;2023-05-02T17:17:35;96954.20;;;23.10;60.74
62038;BME280;47991;42.974;12.082;2023-05-02T17:20:01;96958.84;;;23.12;61.10
62038;BME280;47991;42.974;12.082;2023-05-02T17:22:34;96962.31;;;23.16;61.50
62038;BME280;47991;42.974;12.082;2023-05-02T17:25:04;96970.13;;;23.20;61.86
62038;BME280;47991;42.974;12.082;2023-05-02T17:27:31;96971.85;;;23.22;62.24
62038;BME280;47991;42.974;12.082;2023-05-02T17:30:13;96972.59;;;23.26;62.70
62038;BME280;47991;42.974;12.082;2023-05-02T17:32:54;96975.17;;;23.29;63.08
62038;BME280;47991;42.974;12.082;2023-05-02T17:35:34;96979.56;;;23.32;63.22
62038;BME280;47991;42.974;12.082;2023-05-02T17:38:01;96984.88;;;23.36;63.52
62038;BME280;47991;42.974;12.082;2023-05-02T17:40:33;96984.48;;;23.38;63.81
62038;BME280;47991;42.974;12.082;2023-05-02T17:43:14;96989.80;;;23.41;64.01
62038;BME280;47991;42.974;12.082;2023-05-02T17:45:41;96989.08;;;23.43;63.95
62038;BME280;47991;42.974;12.082;2023-05-02T17:48:22;96992.15;;;23.45;64.07
62038;BME280;47991;42.974;12.082;2023-05-02T17:50:49;96995.94;;;23.46;64.06
62038;BME280;47991;42.974;12.082;2023-05-02T17:53:18;96999.10;;;23.47;64.08
62038;BME280;47991;42.974;12.082;2023-05-02T17:56:01;97001.92;;;23.48;64.15
62038;BME280;47991;42.974;12.082;2023-05-02T17:58:48;96999.64;;;23.49;64.13
62038;BME280;47991;42.974;12.082;2023-05-02T18:01:29;96998.20;;;23.49;64.04
62038;BME280;47991;42.974;12.082;2023-05-02T18:04:10;97002.13;;;23.50;64.05
62038;BME280;47991;42.974;12.082;2023-05-02T18:06:41;97004.40;;;23.50;64.18
62038;BME280;47991;42.974;12.082;2023-05-02T18:09:08;97008.57;;;23.50;63.85
62038;BME280;47991;42.974;12.082;2023-05-02T18:11:34;97012.63;;;23.49;63.78
62038;BME280;47991;42.974;12.082;2023-05-02T18:14:02;97014.27;;;23.49;63.65
62038;BME280;47991;42.974;12.082;2023-05-02T18:16:31;97015.77;;;23.48;63.28
62038;BME280;47991;42.974;12.082;2023-05-02T18:19:14;97018.81;;;23.47;63.40
62038;BME280;47991;42.974;12.082;2023-05-02T18:21:55;97025.01;;;23.46;63.09
62038;BME280;47991;42.974;12.082;2023-05-02T18:24:37;97024.92;;;23.45;62.97
62038;BME280;47991;42.974;12.082;2023-05-02T18:27:03;97028.08;;;23.44;62.88
62038;BME280;47991;42.974;12.082;2023-05-02T18:29:45;97031.95;;;23.43;62.81
62038;BME280;47991;42.974;12.082;2023-05-02T18:32:12;97039.27;;;23.42;62.51
62038;BME280;47991;42.974;12.082;2023-05-02T18:34:54;97039.64;;;23.42;62.58
62038;BME280;47991;42.974;12.082;2023-05-02T18:37:35;97047.15;;;23.41;62.38
62038;BME280;47991;42.974;12.082;2023-05-02T18:40:18;97048.75;;;23.39;62.46
62038;BME280;47991;42.974;12.082;2023-05-02T18:43:01;97052.64;;;23.38;62.44
62038;BME280;47991;42.974;12.082;2023-05-02T18:45:42;97054.70;;;23.37;62.23
62038;BME280;47991;42.974;12.082;2023-05-02T18:48:24;97057.42;;;23.37;62.06
62038;BME280;47991;42.974;12.082;2023-05-02T18:50:54;97061.27;;;23.37;62.08
62038;BME280;47991;42.974;12.082;2023-05-02T18:53:21;97064.73;;;23.36;61.96
62038;BME280;47991;42.974;12.082;2023-05-02T18:55:54;97067.98;;;23.36;61.82
62038;BME280;47991;42.974;12.082;2023-05-02T18:58:35;97068.94;;;23.35;61.79
62038;BME280;47991;42.974;12.082;2023-05-02T19:01:15;97072.87;;;23.34;61.71
62038;BME280;47991;42.974;12.082;2023-05-02T19:03:58;97077.50;;;23.32;61.60
62038;BME280;47991;42.974;12.082;2023-05-02T19:06:26;97082.31;;;23.31;61.50
62038;BME280;47991;42.974;12.082;2023-05-02T19:09:08;97089.46;;;23.30;61.51
62038;BME280;47991;42.974;12.082;2023-05-02T19:11:52;97091.96;;;23.28;61.37
62038;BME280;47991;42.974;12.082;2023-05-02T19:14:34;97095.36;;;23.26;61.26
62038;BME280;47991;42.974;12.082;2023-05-02T19:17:05;97098.91;;;23.25;61.26
62038;BME280;47991;42.974;12.082;2023-05-02T19:19:49;97100.73;;;23.23;61.26
62038;BME280;47991;42.974;12.082;2023-05-02T19:22:16;97101.38;;;23.22;61.49
62038;BME280;47991;42.974;12.082;2023-05-02T19:24:42;97108.36;;;23.21;61.33
62038;BME280;47991;42.974;12.082;2023-05-02T19:27:09;97108.67;;;23.19;61.29
62038;BME280;47991;42.974;12.082;2023-05-02T19:29:52;97114.92;;;23.18;61.20
62038;BME280;47991;42.974;12.082;2023-05-02T19:32:34;97116.91;;;23.15;61.25
62038;BME280;47991;42.974;12.082;2023-05-02T19:35:15;97120.89;;;23.13;61.45
62038;BME280;47991;42.974;12.082;2023-05-02T19:37:56;97122.90;;;23.11;61.34
62038;BME280;47991;42.974;12.082;2023-05-02T19:40:37;97124.54;;;23.09;61.38
62038;BME280;47991;42.974;12.082;2023-05-02T19:43:18;97128.65;;;23.07;61.18
62038;BME280;47991;42.974;12.082;2023-05-02T19:45:45;97129.21;;;23.07;61.46
62038;BME280;47991;42.974;12.082;2023-05-02T19:48:29;97132.36;;;23.06;61.38
62038;BME280;47991;42.974;12.082;2023-05-02T19:50:56;97131.75;;;23.04;61.00
62038;BME280;47991;42.974;12.082;2023-05-02T19:53:37;97133.65;;;23.03;60.80
62038;BME280;47991;42.974;12.082;2023-05-02T19:56:19;97136.24;;;23.02;60.61
62038;BME280;47991;42.974;12.082;2023-05-02T19:58:50;97139.05;;;23.02;60.55
62038;BME280;47991;42.974;12.082;2023-05-02T20:01:32;97140.15;;;23.01;60.46
62038;BME280;47991;42.974;12.082;2023-05-02T20:04:14;97142.44;;;23.02;60.44
62038;BME280;47991;42.974;12.082;2023-05-02T20:06:41;97145.13;;;23.04;60.35
62038;BME280;47991;42.974;12.082;2023-05-02T20:09:07;97148.42;;;23.06;60.26
62038;BME280;47991;42.974;12.082;2023-05-02T20:11:33;97151.47;;;23.06;59.86
62038;BME280;47991;42.974;12.082;2023-05-02T20:14:16;97151.79;;;23.06;59.85
62038;BME280;47991;42.974;12.082;2023-05-02T20:16:43;97148.34;;;23.07;59.88
62038;BME280;47991;42.974;12.082;2023-05-02T20:19:25;97152.67;;;23.07;59.88
62038;BME280;47991;42.974;12.082;2023-05-02T20:21:56;97153.45;;;23.08;59.75
62038;BME280;47991;42.974;12.082;2023-05-02T20:24:36;97154.25;;;23.09;59.92
62038;BME280;47991;42.974;12.082;2023-05-02T20:27:19;97154.14;;;23.10;59.74
62038;BME280;47991;42.974;12.082;2023-05-02T20:29:46;97155.16;;;23.11;59.71
62038;BME280;47991;42.974;12.082;2023-05-02T20:32:27;97155.84;;;23.11;59.66
62038;BME280;47991;42.974;12.082;2023-05-02T20:35:08;97156.64;;;23.11;59.66
62038;BME280;47991;42.974;12.082;2023-05-02T20:37:49;97158.40;;;23.11;59.70
62038;BME280;47991;42.974;12.082;2023-05-02T20:40:30;97155.27;;;23.12;59.82
62038;BME280;47991;42.974;12.082;2023-05-02T20:43:12;97158.36;;;23.13;59.65
62038;BME280;47991;42.974;12.082;2023-05-02T20:45:40;97162.92;;;23.15;59.77
62038;BME280;47991;42.974;12.082;2023-05-02T20:48:23;97162.67;;;23.16;59.72
62038;BME280;47991;42.974;12.082;2023-05-02T20:51:04;97159.90;;;23.16;59.70
62038;BME280;47991;42.974;12.082;2023-05-02T20:53:31;97159.14;;;23.17;59.74
62038;BME280;47991;42.974;12.082;2023-05-02T20:55:57;97161.67;;;23.17;59.74
62038;BME280;47991;42.974;12.082;2023-05-02T20:58:38;97164.48;;;23.18;59.81
62038;BME280;47991;42.974;12.082;2023-05-02T21:01:04;97161.30;;;23.17;59.69
62038;BME280;47991;42.974;12.082;2023-05-02T21:03:31;97161.66;;;23.17;59.65
62038;BME280;47991;42.974;12.082;2023-05-02T21:06:17;97162.13;;;23.16;59.60
62038;BME280;47991;42.974;12.082;2023-05-02T21:08:59;97161.77;;;23.13;59.62
62038;BME280;47991;42.974;12.082;2023-05-02T21:11:42;97159.27;;;23.11;59.67
62038;BME280;47991;42.974;12.082;2023-05-02T21:14:24;97158.35;;;23.10;59.71
62038;BME280;47991;42.974;12.082;2023-05-02T21:16:51;97161.78;;;23.08;59.64
62038;BME280;47991;42.974;12.082;2023-05-02T21:19:18;97162.08;;;23.06;59.78
62038;BME280;47991;42.974;12.082;2023-05-02T21:21:46;97164.17;;;23.05;59.82
62038;BME280;47991;42.974;12.082;2023-05-02T21:24:27;97163.64;;;23.03;59.81
62038;BME280;47991;42.974;12.082;2023-05-02T21:27:08;97162.95;;;23.00;59.85
62038;BME280;47991;42.974;12.082;2023-05-02T21:29:49;97161.69;;;22.98;59.90
62038;BME280;47991;42.974;12.082;2023-05-02T21:32:16;97162.60;;;22.96;59.94
62038;BME280;47991;42.974;12.082;2023-05-02T21:34:57;97169.38;;;22.94;60.04
62038;BME280;47991;42.974;12.082;2023-05-02T21:37:24;97170.23;;;22.93;59.99
62038;BME280;47991;42.974;12.082;2023-05-02T21:39:52;97168.59;;;22.91;60.07
62038;BME280;47991;42.974;12.082;2023-05-02T21:42:33;97172.02;;;22.89;59.99
62038;BME280;47991;42.974;12.082;2023-05-02T21:45:14;97172.02;;;22.87;60.10
62038;BME280;47991;42.974;12.082;2023-05-02T21:47:41;97172.18;;;22.85;60.01
62038;BME280;47991;42.974;12.082;2023-05-02T21:50:08;97173.60;;;22.84;60.08
62038;BME280;47991;42.974;12.082;2023-05-02T21:52:34;97178.98;;;22.82;59.97
62038;BME280;47991;42.974;12.082;2023-05-02T21:55:03;97177.98;;;22.81;60.09
62038;BME280;47991;42.974;12.082;2023-05-02T21:57:30;97181.89;;;22.79;60.10
62038;BME280;47991;42.974;12.082;2023-05-02T21:59:56;97182.62;;;22.77;60.08
62038;BME280;47991;42.974;12.082;2023-05-02T22:02:37;97186.90;;;22.76;60.15
62038;BME280;47991;42.974;12.082;2023-05-02T22:05:18;97189.71;;;22.74;60.13
62038;BME280;47991;42.974;12.082;2023-05-02T22:07:59;97187.85;;;22.73;60.15
62038;BME280;47991;42.974;12.082;2023-05-02T22:10:25;97185.60;;;22.72;60.11
62038;BME280;47991;42.974;12.082;2023-05-02T22:13:08;97183.77;;;22.70;60.27
62038;BME280;47991;42.974;12.082;2023-05-02T22:15:35;97185.48;;;22.69;60.12
62038;BME280;47991;42.974;12.082;2023-05-02T22:18:19;97189.03;;;22.68;60.29
62038;BME280;47991;42.974;12.082;2023-05-02T22:20:45;97188.63;;;22.66;60.26
62038;BME280;47991;42.974;12.082;2023-05-02T22:23:13;97184.77;;;22.65;60.47
62038;BME280;47991;42.974;12.082;2023-05-02T22:25:54;97185.41;;;22.64;60.27
62038;BME280;47991;42.974;12.082;2023-05-02T22:28:21;97185.89;;;22.63;60.34
62038;BME280;47991;42.974;12.082;2023-05-02T22:31:03;97186.77;;;22.61;60.38
62038;BME280;47991;42.974;12.082;2023-05-02T22:33:44;97186.70;;;22.59;60.36
62038;BME280;47991;42.974;12.082;2023-05-02T22:36:29;97186.44;;;22.58;60.44
62038;BME280;47991;42.974;12.082;2023-05-02T22:39:10;97193.94;;;22.57;60.34
62038;BME280;47991;42.974;12.082;2023-05-02T22:41:54;97191.40;;;22.55;60.38
62038;BME280;47991;42.974;12.082;2023-05-02T22:44:20;97195.17;;;22.55;60.52
62038;BME280;47991;42.974;12.082;2023-05-02T22:47:01;97197.27;;;22.54;60.36
62038;BME280;47991;42.974;12.082;2023-05-02T22:49:28;97205.94;;;22.53;60.49
62038;BME280;47991;42.974;12.082;2023-05-02T22:51:56;97202.35;;;22.53;60.57
62038;BME280;47991;42.974;12.082;2023-05-02T22:54:23;97201.24;;;22.53;60.48
62038;BME280;47991;42.974;12.082;2023-05-02T22:56:52;97197.76;;;22.54;60.57
62038;BME280;47991;42.974;12.082;2023-05-02T22:59:19;97198.98;;;22.55;60.39
62038;BME280;47991;42.974;12.082;2023-05-02T23:01:46;97204.55;;;22.55;60.50
62038;BME280;47991;42.974;12.082;2023-05-02T23:04:29;97207.27;;;22.55;60.28